Terminal Aerodrome Forecast
Issued by NWS

Home | Current Version | Previous Version | Text Only | Print | Product List | Glossary On
Versions: 1 2 3 4 5 6 7 8 9 10 11 12 13 14 15 16 17 18 19 20 21 22
000
FTUS46 KSTO 252300
TAFSCK
TAF
KSCK 252329Z 2600/2624 23003KT 5SM HZ FEW010
     FM260100 12005KT 4SM HZ SCT010
     FM260300 VRB03KT 2SM BR OVC005
     FM260900 00000KT 1/2SM FG OVC004
     FM261400 12003KT 1/4SM FG VV001
     FM261800 00000KT 1/2SM FG OVC003
     FM261900 00000KT 2SM BR OVC004=

USA.gov is the U.S. government's official web portal to all federal, state and local government web resources and services.